Quemado, Texas
Current Conditions -  °F | °C
As of 9:45 AM on Thursday 18 Dec 2014 (Local Time) from MMPG Reporting Station
Overcast Overcast  
Wind Chill: 55°   Ceiling: 800
Heat Index: 55°   Visibility: 4mi
Dew Point: 54°   Wind: 9mph
Humidity: 94%   Direction: 280°W
Pressure: 30.15"   Gusts: NA
Location:  28.95°N, 100.62°W
Report Text: MMPG 181545Z 28008KT 4SM OVC008 13/12 A3015 RMK 8/5// BR
Loading
Personal Weather Stations






























Interactive Weather Map New forecast layout! Learn more

10-Day Weather Forecast

Advertisements
Track Severe Weather on mobile